sensor_id;sensor_type;location;lat;lon;timestamp;pressure;altitude;pressure_sealevel;temperature;humidity
19761;BME280;10039;42.632;23.408;2023-05-02T00:01:09;95326.78;;;11.91;70.25
19761;BME280;10039;42.632;23.408;2023-05-02T00:03:35;95338.84;;;11.79;70.11
19761;BME280;10039;42.632;23.408;2023-05-02T00:06:01;95322.44;;;11.77;70.17
19761;BME280;10039;42.632;23.408;2023-05-02T00:08:26;95300.38;;;11.73;69.25
19761;BME280;10039;42.632;23.408;2023-05-02T00:10:52;95343.59;;;11.91;69.66
19761;BME280;10039;42.632;23.408;2023-05-02T00:13:17;95346.63;;;11.93;69.62
19761;BME280;10039;42.632;23.408;2023-05-02T00:15:43;95314.53;;;11.70;69.96
19761;BME280;10039;42.632;23.408;2023-05-02T00:18:08;95303.69;;;11.58;69.54
19761;BME280;10039;42.632;23.408;2023-05-02T00:20:34;95334.94;;;11.84;70.18
19761;BME280;10039;42.632;23.408;2023-05-02T00:23:00;95333.06;;;11.81;70.09
19761;BME280;10039;42.632;23.408;2023-05-02T00:25:25;95312.06;;;11.60;69.85
19761;BME280;10039;42.632;23.408;2023-05-02T00:27:51;95332.78;;;11.52;70.32
19761;BME280;10039;42.632;23.408;2023-05-02T00:30:17;95340.34;;;11.80;69.96
19761;BME280;10039;42.632;23.408;2023-05-02T00:32:43;95357.91;;;11.81;70.02
19761;BME280;10039;42.632;23.408;2023-05-02T00:35:09;95362.78;;;11.86;69.95
19761;BME280;10039;42.632;23.408;2023-05-02T00:37:35;95356.31;;;11.84;69.74
19761;BME280;10039;42.632;23.408;2023-05-02T00:40:01;95350.31;;;11.99;68.87
19761;BME280;10039;42.632;23.408;2023-05-02T00:42:27;95343.94;;;11.93;69.22
19761;BME280;10039;42.632;23.408;2023-05-02T00:44:56;95328.50;;;11.81;69.34
19761;BME280;10039;42.632;23.408;2023-05-02T00:47:22;95341.41;;;11.86;69.48
19761;BME280;10039;42.632;23.408;2023-05-02T00:49:50;95370.50;;;11.81;70.79
19761;BME280;10039;42.632;23.408;2023-05-02T00:52:16;95359.13;;;11.77;70.73
19761;BME280;10039;42.632;23.408;2023-05-02T00:54:42;95370.16;;;12.02;69.73
19761;BME280;10039;42.632;23.408;2023-05-02T00:57:08;95371.94;;;12.08;70.12
19761;BME280;10039;42.632;23.408;2023-05-02T00:59:34;95352.88;;;12.06;69.27
19761;BME280;10039;42.632;23.408;2023-05-02T01:05:20;95357.50;;;12.25;68.79
19761;BME280;10039;42.632;23.408;2023-05-02T01:13:20;95351.94;;;12.35;68.41
19761;BME280;10039;42.632;23.408;2023-05-02T01:15:47;95344.25;;;12.37;67.90
19761;BME280;10039;42.632;23.408;2023-05-02T01:18:17;95370.84;;;12.64;67.99
19761;BME280;10039;42.632;23.408;2023-05-02T01:20:48;95328.88;;;12.41;67.32
19761;BME280;10039;42.632;23.408;2023-05-02T01:23:24;95342.31;;;12.57;67.71
19761;BME280;10039;42.632;23.408;2023-05-02T01:26:15;95337.53;;;12.65;67.92
19761;BME280;10039;42.632;23.408;2023-05-02T01:28:57;95355.75;;;12.73;67.88
19761;BME280;10039;42.632;23.408;2023-05-02T01:31:33;95329.69;;;12.58;68.32
19761;BME280;10039;42.632;23.408;2023-05-02T01:34:01;95347.28;;;12.75;68.19
19761;BME280;10039;42.632;23.408;2023-05-02T01:36:30;95339.78;;;12.86;67.81
19761;BME280;10039;42.632;23.408;2023-05-02T01:38:58;95343.97;;;12.87;67.81
19761;BME280;10039;42.632;23.408;2023-05-02T01:41:26;95343.34;;;12.79;67.52
19761;BME280;10039;42.632;23.408;2023-05-02T01:43:56;95320.06;;;12.60;67.76
19761;BME280;10039;42.632;23.408;2023-05-02T01:46:24;95346.84;;;12.76;68.44
19761;BME280;10039;42.632;23.408;2023-05-02T01:48:51;95358.16;;;12.68;68.11
19761;BME280;10039;42.632;23.408;2023-05-02T01:51:18;95351.41;;;12.60;68.43
19761;BME280;10039;42.632;23.408;2023-05-02T01:53:45;95332.63;;;12.44;68.85
19761;BME280;10039;42.632;23.408;2023-05-02T01:56:16;95339.72;;;12.34;68.79
19761;BME280;10039;42.632;23.408;2023-05-02T01:58:44;95341.16;;;12.39;68.86
19761;BME280;10039;42.632;23.408;2023-05-02T02:01:12;95350.75;;;12.56;68.57
19761;BME280;10039;42.632;23.408;2023-05-02T02:03:39;95340.06;;;12.56;69.13
19761;BME280;10039;42.632;23.408;2023-05-02T02:06:06;95349.91;;;12.59;68.85
19761;BME280;10039;42.632;23.408;2023-05-02T02:08:32;95330.66;;;12.48;68.38
19761;BME280;10039;42.632;23.408;2023-05-02T02:10:59;95344.50;;;12.62;68.29
19761;BME280;10039;42.632;23.408;2023-05-02T02:13:46;95356.97;;;12.69;68.54
19761;BME280;10039;42.632;23.408;2023-05-02T02:16:18;95339.06;;;12.46;68.42
19761;BME280;10039;42.632;23.408;2023-05-02T02:18:46;95344.50;;;12.43;68.30
19761;BME280;10039;42.632;23.408;2023-05-02T02:21:15;95333.25;;;12.51;67.99
19761;BME280;10039;42.632;23.408;2023-05-02T02:23:42;95352.44;;;12.66;68.11
19761;BME280;10039;42.632;23.408;2023-05-02T02:26:12;95362.81;;;12.64;68.02
19761;BME280;10039;42.632;23.408;2023-05-02T02:28:38;95335.88;;;12.55;67.30
19761;BME280;10039;42.632;23.408;2023-05-02T02:31:04;95361.09;;;12.73;66.66
19761;BME280;10039;42.632;23.408;2023-05-02T02:33:31;95354.97;;;12.73;67.16
19761;BME280;10039;42.632;23.408;2023-05-02T02:36:18;95354.44;;;12.62;68.00
19761;BME280;10039;42.632;23.408;2023-05-02T02:41:51;95337.66;;;12.23;68.44
19761;BME280;10039;42.632;23.408;2023-05-02T02:47:21;95361.25;;;12.47;68.50
19761;BME280;10039;42.632;23.408;2023-05-02T02:49:50;95365.22;;;12.39;68.45
19761;BME280;10039;42.632;23.408;2023-05-02T02:58:13;95362.34;;;12.49;67.67
19761;BME280;10039;42.632;23.408;2023-05-02T03:00:40;95360.44;;;12.50;67.51
19761;BME280;10039;42.632;23.408;2023-05-02T03:03:06;95369.28;;;12.47;67.66
19761;BME280;10039;42.632;23.408;2023-05-02T03:05:32;95354.31;;;12.30;67.80
19761;BME280;10039;42.632;23.408;2023-05-02T03:07:58;95347.41;;;12.32;67.76
19761;BME280;10039;42.632;23.408;2023-05-02T03:10:25;95364.63;;;12.31;67.95
19761;BME280;10039;42.632;23.408;2023-05-02T03:12:50;95358.84;;;12.33;67.54
19761;BME280;10039;42.632;23.408;2023-05-02T03:18:13;95381.91;;;12.27;68.13
19761;BME280;10039;42.632;23.408;2023-05-02T03:20:38;95386.59;;;12.23;69.09
19761;BME280;10039;42.632;23.408;2023-05-02T03:23:04;95391.97;;;12.20;69.34
19761;BME280;10039;42.632;23.408;2023-05-02T03:25:29;95383.06;;;12.07;70.13
19761;BME280;10039;42.632;23.408;2023-05-02T03:27:58;95400.97;;;12.10;70.48
19761;BME280;10039;42.632;23.408;2023-05-02T03:30:23;95376.72;;;11.97;70.18
19761;BME280;10039;42.632;23.408;2023-05-02T03:32:49;95396.38;;;12.10;70.46
19761;BME280;10039;42.632;23.408;2023-05-02T03:35:15;95386.59;;;12.00;70.11
19761;BME280;10039;42.632;23.408;2023-05-02T03:37:41;95397.25;;;12.04;70.26
19761;BME280;10039;42.632;23.408;2023-05-02T03:40:07;95395.31;;;12.04;70.68
19761;BME280;10039;42.632;23.408;2023-05-02T03:42:35;95397.41;;;12.16;69.70
19761;BME280;10039;42.632;23.408;2023-05-02T03:45:05;95408.84;;;12.17;69.94
19761;BME280;10039;42.632;23.408;2023-05-02T03:47:31;95380.84;;;12.02;69.83
19761;BME280;10039;42.632;23.408;2023-05-02T03:49:57;95411.56;;;12.36;69.52
19761;BME280;10039;42.632;23.408;2023-05-02T03:52:24;95414.22;;;12.36;69.02
19761;BME280;10039;42.632;23.408;2023-05-02T03:54:49;95416.78;;;12.43;68.99
19761;BME280;10039;42.632;23.408;2023-05-02T03:57:15;95405.19;;;12.49;68.38
19761;BME280;10039;42.632;23.408;2023-05-02T03:59:40;95388.38;;;12.49;68.67
19761;BME280;10039;42.632;23.408;2023-05-02T04:02:07;95411.69;;;12.48;68.78
19761;BME280;10039;42.632;23.408;2023-05-02T04:04:33;95383.84;;;12.46;68.44
19761;BME280;10039;42.632;23.408;2023-05-02T04:06:59;95408.00;;;12.62;68.16
19761;BME280;10039;42.632;23.408;2023-05-02T04:09:24;95397.56;;;12.48;68.22
19761;BME280;10039;42.632;23.408;2023-05-02T04:11:50;95408.75;;;12.62;68.23
19761;BME280;10039;42.632;23.408;2023-05-02T04:14:16;95409.66;;;12.56;68.37
19761;BME280;10039;42.632;23.408;2023-05-02T04:16:47;95380.00;;;12.47;68.79
19761;BME280;10039;42.632;23.408;2023-05-02T04:19:13;95412.72;;;12.74;68.50
19761;BME280;10039;42.632;23.408;2023-05-02T04:21:38;95415.81;;;12.92;67.75
19761;BME280;10039;42.632;23.408;2023-05-02T04:24:04;95408.19;;;13.10;67.12
19761;BME280;10039;42.632;23.408;2023-05-02T04:26:30;95384.41;;;13.12;66.70
19761;BME280;10039;42.632;23.408;2023-05-02T04:28:55;95387.88;;;13.28;66.20
19761;BME280;10039;42.632;23.408;2023-05-02T04:31:21;95379.16;;;13.24;66.33
19761;BME280;10039;42.632;23.408;2023-05-02T04:33:46;95410.28;;;13.53;66.06
19761;BME280;10039;42.632;23.408;2023-05-02T04:36:13;95417.31;;;13.47;65.62
19761;BME280;10039;42.632;23.408;2023-05-02T04:38:38;95409.25;;;13.47;64.40
19761;BME280;10039;42.632;23.408;2023-05-02T04:41:04;95408.59;;;13.43;64.44
19761;BME280;10039;42.632;23.408;2023-05-02T04:43:30;95404.06;;;13.41;64.03
19761;BME280;10039;42.632;23.408;2023-05-02T04:45:58;95395.84;;;13.47;63.97
19761;BME280;10039;42.632;23.408;2023-05-02T04:48:23;95426.34;;;13.69;63.88
19761;BME280;10039;42.632;23.408;2023-05-02T04:50:51;95424.25;;;13.77;64.20
19761;BME280;10039;42.632;23.408;2023-05-02T04:53:17;95407.00;;;13.78;63.43
19761;BME280;10039;42.632;23.408;2023-05-02T04:55:43;95413.09;;;13.94;62.69
19761;BME280;10039;42.632;23.408;2023-05-02T04:58:09;95413.09;;;14.10;61.49
19761;BME280;10039;42.632;23.408;2023-05-02T05:00:34;95421.47;;;14.12;61.36
19761;BME280;10039;42.632;23.408;2023-05-02T05:03:00;95407.41;;;13.92;61.42
19761;BME280;10039;42.632;23.408;2023-05-02T05:05:26;95422.19;;;14.16;61.31
19761;BME280;10039;42.632;23.408;2023-05-02T05:07:51;95418.47;;;14.10;60.73
19761;BME280;10039;42.632;23.408;2023-05-02T05:10:17;95441.94;;;14.22;60.99
19761;BME280;10039;42.632;23.408;2023-05-02T05:12:42;95403.38;;;14.16;60.47
19761;BME280;10039;42.632;23.408;2023-05-02T05:15:08;95406.03;;;14.32;59.81
19761;BME280;10039;42.632;23.408;2023-05-02T05:17:34;95407.19;;;14.31;59.26
19761;BME280;10039;42.632;23.408;2023-05-02T05:20:00;95392.13;;;14.21;59.22
19761;BME280;10039;42.632;23.408;2023-05-02T05:22:26;95423.13;;;14.66;59.56
19761;BME280;10039;42.632;23.408;2023-05-02T05:24:54;95417.66;;;14.70;58.84
19761;BME280;10039;42.632;23.408;2023-05-02T05:27:20;95415.53;;;14.77;59.05
19761;BME280;10039;42.632;23.408;2023-05-02T05:29:46;95423.59;;;14.77;58.23
19761;BME280;10039;42.632;23.408;2023-05-02T05:32:12;95435.47;;;14.92;59.40
19761;BME280;10039;42.632;23.408;2023-05-02T05:34:37;95397.91;;;14.89;58.71
19761;BME280;10039;42.632;23.408;2023-05-02T05:37:03;95430.78;;;15.21;57.82
19761;BME280;10039;42.632;23.408;2023-05-02T05:39:29;95418.41;;;15.24;57.49
19761;BME280;10039;42.632;23.408;2023-05-02T05:41:54;95430.78;;;15.21;57.83
19761;BME280;10039;42.632;23.408;2023-05-02T05:44:21;95435.88;;;15.57;57.13
19761;BME280;10039;42.632;23.408;2023-05-02T05:46:47;95433.09;;;15.73;56.87
19761;BME280;10039;42.632;23.408;2023-05-02T05:49:14;95432.75;;;15.83;56.40
19761;BME280;10039;42.632;23.408;2023-05-02T05:51:40;95433.16;;;15.81;55.32
19761;BME280;10039;42.632;23.408;2023-05-02T05:54:05;95432.09;;;15.91;55.73
19761;BME280;10039;42.632;23.408;2023-05-02T05:56:31;95434.66;;;15.95;55.67
19761;BME280;10039;42.632;23.408;2023-05-02T05:58:57;95421.66;;;15.93;54.93
19761;BME280;10039;42.632;23.408;2023-05-02T06:01:23;95434.94;;;16.09;54.96
19761;BME280;10039;42.632;23.408;2023-05-02T06:03:48;95436.69;;;16.16;54.38
19761;BME280;10039;42.632;23.408;2023-05-02T06:06:14;95446.47;;;16.22;53.97
19761;BME280;10039;42.632;23.408;2023-05-02T06:08:39;95423.00;;;16.23;53.92
19761;BME280;10039;42.632;23.408;2023-05-02T06:11:09;95450.09;;;16.41;53.50
19761;BME280;10039;42.632;23.408;2023-05-02T06:13:36;95432.56;;;16.36;53.13
19761;BME280;10039;42.632;23.408;2023-05-02T06:16:02;95441.97;;;16.53;53.15
19761;BME280;10039;42.632;23.408;2023-05-02T06:18:27;95439.59;;;16.55;53.69
19761;BME280;10039;42.632;23.408;2023-05-02T06:20:53;95431.91;;;16.66;52.28
19761;BME280;10039;42.632;23.408;2023-05-02T06:23:18;95431.03;;;16.69;52.48
19761;BME280;10039;42.632;23.408;2023-05-02T06:25:44;95429.84;;;16.70;52.17
19761;BME280;10039;42.632;23.408;2023-05-02T06:28:10;95426.16;;;16.98;52.28
19761;BME280;10039;42.632;23.408;2023-05-02T06:30:35;95427.75;;;17.17;51.62
19761;BME280;10039;42.632;23.408;2023-05-02T06:33:03;95413.63;;;17.13;51.54
19761;BME280;10039;42.632;23.408;2023-05-02T06:35:28;95431.25;;;17.26;50.13
19761;BME280;10039;42.632;23.408;2023-05-02T06:37:54;95423.69;;;17.34;50.23
19761;BME280;10039;42.632;23.408;2023-05-02T06:40:20;95412.66;;;17.28;49.95
19761;BME280;10039;42.632;23.408;2023-05-02T06:42:45;95413.94;;;17.36;50.34
19761;BME280;10039;42.632;23.408;2023-05-02T06:45:11;95427.66;;;17.51;49.28
19761;BME280;10039;42.632;23.408;2023-05-02T06:47:36;95418.41;;;17.70;49.32
19761;BME280;10039;42.632;23.408;2023-05-02T06:50:02;95423.81;;;17.70;49.63
19761;BME280;10039;42.632;23.408;2023-05-02T06:52:28;95420.75;;;17.98;49.42
19761;BME280;10039;42.632;23.408;2023-05-02T06:54:53;95420.16;;;18.03;48.27
19761;BME280;10039;42.632;23.408;2023-05-02T06:57:19;95419.31;;;18.15;48.01
19761;BME280;10039;42.632;23.408;2023-05-02T06:59:44;95423.91;;;18.05;47.58
19761;BME280;10039;42.632;23.408;2023-05-02T07:02:10;95420.94;;;18.12;47.33
19761;BME280;10039;42.632;23.408;2023-05-02T07:04:35;95419.00;;;18.13;46.20
19761;BME280;10039;42.632;23.408;2023-05-02T07:07:01;95414.63;;;18.15;46.31
19761;BME280;10039;42.632;23.408;2023-05-02T07:09:26;95408.66;;;18.20;46.36
19761;BME280;10039;42.632;23.408;2023-05-02T07:11:52;95408.97;;;18.40;45.96
19761;BME280;10039;42.632;23.408;2023-05-02T07:14:17;95412.59;;;18.55;46.47
19761;BME280;10039;42.632;23.408;2023-05-02T07:16:43;95425.94;;;18.86;46.23
19761;BME280;10039;42.632;23.408;2023-05-02T07:19:08;95429.53;;;19.10;45.76
19761;BME280;10039;42.632;23.408;2023-05-02T07:21:33;95415.88;;;19.13;45.59
19761;BME280;10039;42.632;23.408;2023-05-02T07:24:00;95411.91;;;19.32;45.20
19761;BME280;10039;42.632;23.408;2023-05-02T07:26:25;95417.88;;;19.54;44.60
19761;BME280;10039;42.632;23.408;2023-05-02T07:28:52;95404.31;;;19.54;43.67
19761;BME280;10039;42.632;23.408;2023-05-02T07:31:17;95385.59;;;19.32;43.21
19761;BME280;10039;42.632;23.408;2023-05-02T07:33:43;95400.41;;;19.55;43.51
19761;BME280;10039;42.632;23.408;2023-05-02T07:36:08;95419.66;;;19.57;42.65
19761;BME280;10039;42.632;23.408;2023-05-02T07:38:34;95408.66;;;19.60;43.63
19761;BME280;10039;42.632;23.408;2023-05-02T07:40:59;95398.63;;;19.52;43.97
19761;BME280;10039;42.632;23.408;2023-05-02T07:43:25;95412.25;;;19.66;43.40
19761;BME280;10039;42.632;23.408;2023-05-02T07:45:51;95409.28;;;19.88;43.89
19761;BME280;10039;42.632;23.408;2023-05-02T07:48:17;95411.09;;;19.91;43.50
19761;BME280;10039;42.632;23.408;2023-05-02T07:50:42;95406.03;;;19.75;42.78
19761;BME280;10039;42.632;23.408;2023-05-02T07:53:08;95415.25;;;20.01;42.95
19761;BME280;10039;42.632;23.408;2023-05-02T07:55:33;95411.19;;;19.96;42.26
19761;BME280;10039;42.632;23.408;2023-05-02T07:57:59;95373.69;;;19.95;42.01
19761;BME280;10039;42.632;23.408;2023-05-02T08:00:24;95406.97;;;20.28;41.61
19761;BME280;10039;42.632;23.408;2023-05-02T08:02:50;95386.19;;;20.25;42.38
19761;BME280;10039;42.632;23.408;2023-05-02T08:05:16;95387.56;;;20.43;41.95
19761;BME280;10039;42.632;23.408;2023-05-02T08:07:41;95394.03;;;20.84;41.08
19761;BME280;10039;42.632;23.408;2023-05-02T08:10:07;95400.13;;;20.93;41.45
19761;BME280;10039;42.632;23.408;2023-05-02T08:12:40;95418.78;;;21.29;42.39
19761;BME280;10039;42.632;23.408;2023-05-02T08:15:07;95403.59;;;21.37;39.68
19761;BME280;10039;42.632;23.408;2023-05-02T08:17:33;95379.44;;;21.39;41.48
19761;BME280;10039;42.632;23.408;2023-05-02T08:19:59;95390.09;;;21.57;40.21
19761;BME280;10039;42.632;23.408;2023-05-02T08:22:25;95403.03;;;21.62;39.92
19761;BME280;10039;42.632;23.408;2023-05-02T08:24:50;95397.81;;;21.44;39.04
19761;BME280;10039;42.632;23.408;2023-05-02T08:27:16;95385.59;;;21.54;40.26
19761;BME280;10039;42.632;23.408;2023-05-02T08:29:41;95390.31;;;21.39;39.01
19761;BME280;10039;42.632;23.408;2023-05-02T08:32:07;95395.94;;;21.50;39.62
19761;BME280;10039;42.632;23.408;2023-05-02T08:34:32;95398.53;;;21.59;39.63
19761;BME280;10039;42.632;23.408;2023-05-02T08:36:58;95396.00;;;21.70;39.37
19761;BME280;10039;42.632;23.408;2023-05-02T08:39:23;95394.88;;;21.62;41.88
19761;BME280;10039;42.632;23.408;2023-05-02T08:41:49;95389.81;;;21.69;39.25
19761;BME280;10039;42.632;23.408;2023-05-02T08:44:15;95370.91;;;21.46;38.89
19761;BME280;10039;42.632;23.408;2023-05-02T08:46:40;95386.66;;;21.91;38.09
19761;BME280;10039;42.632;23.408;2023-05-02T08:49:09;95390.28;;;21.68;38.03
19761;BME280;10039;42.632;23.408;2023-05-02T08:51:35;95400.69;;;21.26;40.88
19761;BME280;10039;42.632;23.408;2023-05-02T08:54:01;95389.38;;;21.42;38.99
19761;BME280;10039;42.632;23.408;2023-05-02T08:56:28;95395.38;;;21.46;38.17
19761;BME280;10039;42.632;23.408;2023-05-02T08:58:53;95386.16;;;21.58;39.34
19761;BME280;10039;42.632;23.408;2023-05-02T09:01:22;95397.59;;;21.62;37.83
19761;BME280;10039;42.632;23.408;2023-05-02T09:03:48;95383.56;;;21.49;37.48
19761;BME280;10039;42.632;23.408;2023-05-02T09:06:18;95383.31;;;21.81;38.29
19761;BME280;10039;42.632;23.408;2023-05-02T09:08:46;95368.91;;;21.75;37.91
19761;BME280;10039;42.632;23.408;2023-05-02T09:11:17;95378.16;;;21.83;37.41
19761;BME280;10039;42.632;23.408;2023-05-02T09:13:44;95372.69;;;21.63;39.27
19761;BME280;10039;42.632;23.408;2023-05-02T09:16:12;95367.94;;;21.78;37.29
19761;BME280;10039;42.632;23.408;2023-05-02T09:18:42;95370.91;;;21.60;37.33
19761;BME280;10039;42.632;23.408;2023-05-02T09:21:16;95366.66;;;21.74;37.61
19761;BME280;10039;42.632;23.408;2023-05-02T09:28:42;95372.09;;;21.74;37.63
19761;BME280;10039;42.632;23.408;2023-05-02T09:31:13;95363.19;;;21.73;37.28
19761;BME280;10039;42.632;23.408;2023-05-02T09:33:39;95359.81;;;21.78;36.27
19761;BME280;10039;42.632;23.408;2023-05-02T09:36:06;95364.97;;;21.76;36.78
19761;BME280;10039;42.632;23.408;2023-05-02T09:38:32;95328.63;;;21.74;37.60
19761;BME280;10039;42.632;23.408;2023-05-02T09:40:59;95360.09;;;22.00;35.69
19761;BME280;10039;42.632;23.408;2023-05-02T09:43:25;95355.06;;;21.93;36.76
19761;BME280;10039;42.632;23.408;2023-05-02T09:46:01;95361.75;;;21.92;36.35
19761;BME280;10039;42.632;23.408;2023-05-02T09:48:28;95342.66;;;21.72;36.72
19761;BME280;10039;42.632;23.408;2023-05-02T09:50:55;95349.53;;;21.88;37.12
19761;BME280;10039;42.632;23.408;2023-05-02T09:53:20;95346.25;;;21.98;36.57
19761;BME280;10039;42.632;23.408;2023-05-02T09:55:46;95346.66;;;21.91;36.08
19761;BME280;10039;42.632;23.408;2023-05-02T09:58:22;95342.78;;;21.98;38.20
19761;BME280;10039;42.632;23.408;2023-05-02T10:00:49;95323.19;;;21.94;36.35
19761;BME280;10039;42.632;23.408;2023-05-02T10:03:16;95319.03;;;21.78;35.87
19761;BME280;10039;42.632;23.408;2023-05-02T10:05:44;95331.75;;;21.87;35.77
19761;BME280;10039;42.632;23.408;2023-05-02T10:08:10;95331.50;;;21.70;35.57
19761;BME280;10039;42.632;23.408;2023-05-02T10:10:38;95326.19;;;21.76;35.40
19761;BME280;10039;42.632;23.408;2023-05-02T10:13:06;95319.38;;;21.86;37.61
19761;BME280;10039;42.632;23.408;2023-05-02T10:15:32;95323.88;;;22.29;37.45
19761;BME280;10039;42.632;23.408;2023-05-02T10:17:59;95319.53;;;22.37;35.58
19761;BME280;10039;42.632;23.408;2023-05-02T10:20:30;95319.19;;;22.29;35.17
19761;BME280;10039;42.632;23.408;2023-05-02T10:23:00;95313.16;;;22.40;35.05
19761;BME280;10039;42.632;23.408;2023-05-02T10:25:28;95309.81;;;22.30;35.57
19761;BME280;10039;42.632;23.408;2023-05-02T10:27:58;95322.00;;;22.35;35.02
19761;BME280;10039;42.632;23.408;2023-05-02T10:30:25;95315.03;;;22.34;35.49
19761;BME280;10039;42.632;23.408;2023-05-02T10:32:51;95316.91;;;22.48;35.93
19761;BME280;10039;42.632;23.408;2023-05-02T10:35:20;95311.75;;;22.50;34.79
19761;BME280;10039;42.632;23.408;2023-05-02T10:37:46;95303.75;;;22.41;35.51
19761;BME280;10039;42.632;23.408;2023-05-02T10:40:13;95305.53;;;22.44;34.94
19761;BME280;10039;42.632;23.408;2023-05-02T10:42:42;95281.03;;;22.24;34.90
19761;BME280;10039;42.632;23.408;2023-05-02T10:48:16;95300.88;;;22.50;34.77
19761;BME280;10039;42.632;23.408;2023-05-02T10:50:57;95302.50;;;22.22;35.65
19761;BME280;10039;42.632;23.408;2023-05-02T10:53:33;95304.00;;;22.23;34.91
19761;BME280;10039;42.632;23.408;2023-05-02T10:56:20;95279.97;;;21.96;34.84
19761;BME280;10039;42.632;23.408;2023-05-02T10:58:53;95277.66;;;21.89;35.25
19761;BME280;10039;42.632;23.408;2023-05-02T11:01:35;95291.25;;;21.89;35.85
19761;BME280;10039;42.632;23.408;2023-05-02T11:04:05;95279.81;;;21.85;35.54
19761;BME280;10039;42.632;23.408;2023-05-02T11:06:36;95269.50;;;21.89;36.19
19761;BME280;10039;42.632;23.408;2023-05-02T11:11:47;95292.59;;;22.39;36.56
19761;BME280;10039;42.632;23.408;2023-05-02T11:19:24;95280.69;;;21.76;35.54
19761;BME280;10039;42.632;23.408;2023-05-02T11:21:50;95271.13;;;22.01;35.25
19761;BME280;10039;42.632;23.408;2023-05-02T11:32:20;95266.50;;;21.87;36.03
19761;BME280;10039;42.632;23.408;2023-05-02T11:34:47;95284.88;;;22.12;36.32
19761;BME280;10039;42.632;23.408;2023-05-02T11:37:16;95274.94;;;21.89;35.65
19761;BME280;10039;42.632;23.408;2023-05-02T11:42:07;95268.44;;;21.81;35.89
19761;BME280;10039;42.632;23.408;2023-05-02T11:44:33;95249.25;;;21.90;36.01
19761;BME280;10039;42.632;23.408;2023-05-02T11:47:00;95242.38;;;21.74;36.33
19761;BME280;10039;42.632;23.408;2023-05-02T11:49:27;95251.69;;;21.88;36.01
19761;BME280;10039;42.632;23.408;2023-05-02T11:51:52;95262.56;;;22.08;35.67
19761;BME280;10039;42.632;23.408;2023-05-02T11:54:18;95221.81;;;21.68;35.94
19761;BME280;10039;42.632;23.408;2023-05-02T11:56:44;95236.34;;;21.65;36.15
19761;BME280;10039;42.632;23.408;2023-05-02T11:59:11;95216.06;;;21.86;36.34
19761;BME280;10039;42.632;23.408;2023-05-02T12:01:46;95235.28;;;22.02;36.33
19761;BME280;10039;42.632;23.408;2023-05-02T12:04:12;95238.72;;;22.23;36.27
19761;BME280;10039;42.632;23.408;2023-05-02T12:06:38;95252.19;;;22.32;36.09
19761;BME280;10039;42.632;23.408;2023-05-02T12:09:07;95243.25;;;22.31;35.46
19761;BME280;10039;42.632;23.408;2023-05-02T12:11:33;95244.09;;;22.37;35.62
19761;BME280;10039;42.632;23.408;2023-05-02T12:13:59;95243.91;;;22.41;35.34
19761;BME280;10039;42.632;23.408;2023-05-02T12:16:26;95236.78;;;22.49;35.10
19761;BME280;10039;42.632;23.408;2023-05-02T12:18:51;95226.41;;;22.47;34.49
19761;BME280;10039;42.632;23.408;2023-05-02T12:21:17;95218.97;;;22.48;34.32
19761;BME280;10039;42.632;23.408;2023-05-02T12:23:43;95224.59;;;22.39;35.12
19761;BME280;10039;42.632;23.408;2023-05-02T12:26:16;95235.75;;;22.41;33.67
19761;BME280;10039;42.632;23.408;2023-05-02T12:28:49;95233.28;;;22.43;34.82
19761;BME280;10039;42.632;23.408;2023-05-02T12:31:15;95225.59;;;22.41;34.25
19761;BME280;10039;42.632;23.408;2023-05-02T12:33:42;95224.59;;;22.39;34.07
19761;BME280;10039;42.632;23.408;2023-05-02T12:36:08;95196.44;;;22.42;34.01
19761;BME280;10039;42.632;23.408;2023-05-02T12:38:35;95212.84;;;22.53;33.91
19761;BME280;10039;42.632;23.408;2023-05-02T12:41:00;95208.47;;;22.61;33.44
19761;BME280;10039;42.632;23.408;2023-05-02T12:43:26;95181.59;;;22.43;34.82
19761;BME280;10039;42.632;23.408;2023-05-02T12:46:08;95200.56;;;22.63;34.04
19761;BME280;10039;42.632;23.408;2023-05-02T12:48:34;95177.13;;;22.40;33.98
19761;BME280;10039;42.632;23.408;2023-05-02T12:51:00;95179.34;;;22.41;34.13
19761;BME280;10039;42.632;23.408;2023-05-02T12:53:42;95192.22;;;22.21;33.68
19761;BME280;10039;42.632;23.408;2023-05-02T12:56:12;95185.47;;;22.11;34.41
19761;BME280;10039;42.632;23.408;2023-05-02T12:58:47;95190.47;;;22.18;35.54
19761;BME280;10039;42.632;23.408;2023-05-02T13:01:13;95185.41;;;22.31;33.80
19761;BME280;10039;42.632;23.408;2023-05-02T13:03:40;95194.53;;;22.28;33.14
19761;BME280;10039;42.632;23.408;2023-05-02T13:06:06;95172.84;;;22.08;34.30
19761;BME280;10039;42.632;23.408;2023-05-02T13:08:33;95200.47;;;22.06;34.45
19761;BME280;10039;42.632;23.408;2023-05-02T13:10:59;95184.25;;;22.12;33.78
19761;BME280;10039;42.632;23.408;2023-05-02T13:13:25;95168.22;;;21.94;33.64
19761;BME280;10039;42.632;23.408;2023-05-02T13:15:51;95192.34;;;22.32;34.25
19761;BME280;10039;42.632;23.408;2023-05-02T13:18:16;95199.28;;;22.33;33.08
19761;BME280;10039;42.632;23.408;2023-05-02T13:20:41;95202.47;;;22.06;33.09
19761;BME280;10039;42.632;23.408;2023-05-02T13:23:07;95183.25;;;22.15;33.77
19761;BME280;10039;42.632;23.408;2023-05-02T13:25:32;95162.53;;;22.17;33.94
19761;BME280;10039;42.632;23.408;2023-05-02T13:27:58;95193.38;;;22.65;32.90
19761;BME280;10039;42.632;23.408;2023-05-02T13:30:23;95185.19;;;22.60;32.97
19761;BME280;10039;42.632;23.408;2023-05-02T13:32:49;95198.66;;;22.74;33.23
19761;BME280;10039;42.632;23.408;2023-05-02T13:35:14;95180.25;;;22.58;32.57
19761;BME280;10039;42.632;23.408;2023-05-02T13:37:40;95188.47;;;22.69;32.14
19761;BME280;10039;42.632;23.408;2023-05-02T13:40:07;95202.59;;;22.67;33.29